Time;durP1;ratioP1;P1;durP2;ratioP2;P2;SDS_P1;SDS_P2;PMS_P1;PMS_P2;Temp;Humidity;BMP_temperature;BMP_pressure;BME280_temperature;BME280_humidity;BME280_pressure;Samples;Min_cycle;Max_cycle;Signal;HPM_P1;HPM_P2
2022/04/14 00:00:10;;;;;;;4.45;3.65;;;12.10;59.60;;;;;;4926469;29;20083;-87
2022/04/14 00:02:36;;;;;;;3.90;2.88;;;12.00;59.40;;;;;;4926138;29;20043;-86
2022/04/14 00:05:02;;;;;;;4.38;3.40;;;12.00;59.50;;;;;;4926931;29;20024;-86
2022/04/14 00:07:28;;;;;;;4.43;3.45;;;12.00;59.60;;;;;;4926826;29;20035;-85
2022/04/14 00:09:54;;;;;;;5.00;3.65;;;11.90;59.40;;;;;;4927766;29;20349;-84
2022/04/14 00:12:23;;;;;;;3.33;3.03;;;11.90;59.40;;;;;;4926981;29;20032;-86
2022/04/14 00:14:49;;;;;;;4.40;3.63;;;11.90;59.50;;;;;;4924787;29;20487;-84
2022/04/14 00:17:15;;;;;;;4.20;3.25;;;11.80;59.40;;;;;;4923421;29;20038;-84
2022/04/14 00:19:41;;;;;;;4.38;3.22;;;11.80;59.40;;;;;;4921825;29;20556;-86
2022/04/14 00:22:08;;;;;;;3.80;3.10;;;11.80;59.50;;;;;;4943641;29;20036;-86
2022/04/14 00:24:34;;;;;;;3.83;2.97;;;11.70;59.30;;;;;;4930765;28;20435;-86
2022/04/14 00:27:00;;;;;;;3.70;3.38;;;11.70;59.40;;;;;;4921911;29;20020;-86
2022/04/14 00:29:26;;;;;;;3.25;2.95;;;11.70;59.50;;;;;;4941670;28;20032;-85
2022/04/14 00:31:52;;;;;;;3.55;2.67;;;11.70;59.50;;;;;;4926120;29;20119;-89
2022/04/14 00:34:18;;;;;;;5.70;3.30;;;11.60;59.30;;;;;;4937451;29;20163;-84
2022/04/14 00:36:44;;;;;;;3.90;2.90;;;11.60;59.30;;;;;;4936491;29;20107;-86
2022/04/14 00:39:10;;;;;;;3.22;2.80;;;11.60;59.40;;;;;;4926136;29;20079;-85
2022/04/14 00:41:37;;;;;;;3.38;2.53;;;11.60;59.50;;;;;;4910560;29;20682;-84
2022/04/14 00:44:03;;;;;;;2.78;2.55;;;11.50;59.30;;;;;;4927250;29;20036;-85
2022/04/14 00:46:29;;;;;;;3.03;2.70;;;11.50;59.40;;;;;;4926004;29;20028;-84
2022/04/14 00:48:56;;;;;;;3.80;2.90;;;11.50;59.30;;;;;;4926605;29;20031;-84
2022/04/14 00:51:22;;;;;;;3.38;2.58;;;11.40;59.20;;;;;;4928356;29;20051;-84
2022/04/14 00:53:48;;;;;;;4.25;2.85;;;11.40;59.20;;;;;;4924226;29;20478;-84
2022/04/14 00:56:15;;;;;;;3.10;2.60;;;11.40;59.30;;;;;;4927928;29;20507;-84
2022/04/14 00:58:41;;;;;;;3.42;2.83;;;11.40;59.30;;;;;;4922658;29;20134;-84
2022/04/14 01:01:07;;;;;;;3.40;2.70;;;11.30;59.20;;;;;;4928153;29;20039;-85
2022/04/14 01:03:35;;;;;;;3.88;2.28;;;11.30;59.20;;;;;;4927821;29;20039;-88
2022/04/14 01:06:02;;;;;;;2.92;2.58;;;11.30;59.30;;;;;;4928910;29;20027;-89
2022/04/14 01:08:28;;;;;;;2.67;2.40;;;11.20;59.10;;;;;;4906388;29;20042;-90
2022/04/14 01:10:55;;;;;;;4.50;2.80;;;11.20;59.10;;;;;;4928509;29;20032;-88
2022/04/14 01:13:21;;;;;;;2.40;2.10;;;11.20;59.20;;;;;;4928115;29;20032;-88
2022/04/14 01:15:48;;;;;;;2.20;2.00;;;11.10;59.10;;;;;;4931529;29;20047;-88
2022/04/14 01:18:15;;;;;;;2.75;2.35;;;11.10;59.10;;;;;;4947416;29;20048;-87
2022/04/14 01:20:43;;;;;;;3.72;2.55;;;11.10;59.10;;;;;;4935161;29;20047;-85
2022/04/14 01:23:10;;;;;;;2.67;2.30;;;11.10;59.20;;;;;;4948118;29;20027;-85
2022/04/14 01:25:37;;;;;;;2.42;2.10;;;11.00;59.60;;;;;;4950339;29;20043;-85
2022/04/14 01:28:09;;;;;;;2.47;2.28;;;11.00;59.10;;;;;;4941321;29;20082;-86
2022/04/14 01:30:36;;;;;;;2.92;2.40;;;11.00;59.10;;;;;;4931905;29;20391;-84
2022/04/14 01:33:02;;;;;;;2.58;2.17;;;11.00;59.10;;;;;;4930453;29;20031;-86
2022/04/14 01:35:28;;;;;;;2.40;2.10;;;10.90;59.00;;;;;;4932475;29;20088;-87
2022/04/14 01:37:54;;;;;;;3.13;2.60;;;10.90;59.00;;;;;;4925177;29;20066;-86
2022/04/14 01:40:20;;;;;;;2.22;2.03;;;10.90;59.00;;;;;;4945075;28;20551;-86
2022/04/14 01:42:46;;;;;;;2.00;1.80;;;10.90;59.00;;;;;;4932935;29;20183;-92
2022/04/14 01:45:12;;;;;;;3.25;2.47;;;10.90;59.00;;;;;;4934929;29;20036;-93
2022/04/14 01:47:43;;;;;;;3.13;2.70;;;10.80;58.90;;;;;;4935203;29;20538;-93
2022/04/14 01:50:12;;;;;;;3.05;2.45;;;10.80;58.90;;;;;;4933533;29;20043;-84
2022/04/14 01:52:40;;;;;;;2.97;2.55;;;10.70;58.80;;;;;;4932326;29;20439;-88
2022/04/14 01:55:07;;;;;;;3.00;2.50;;;10.70;58.80;;;;;;4941164;29;20027;-87
2022/04/14 01:57:33;;;;;;;3.03;2.60;;;10.70;58.80;;;;;;4933135;29;20051;-86
2022/04/14 02:00:00;;;;;;;4.05;2.78;;;10.70;58.80;;;;;;4927515;29;20102;-86
2022/04/14 02:02:26;;;;;;;2.65;2.35;;;10.60;58.70;;;;;;4915097;29;20044;-86
2022/04/14 02:04:52;;;;;;;3.25;2.97;;;10.60;58.70;;;;;;4931763;29;20058;-85
2022/04/14 02:07:19;;;;;;;3.42;2.88;;;10.50;58.50;;;;;;4932164;29;20518;-86
2022/04/14 02:09:45;;;;;;;2.85;2.65;;;10.50;58.60;;;;;;4932400;29;20423;-86
2022/04/14 02:12:11;;;;;;;3.13;2.85;;;10.50;58.60;;;;;;4930871;29;20042;-86
2022/04/14 02:14:45;;;;;;;3.90;3.30;;;10.40;58.50;;;;;;4925923;29;20074;-86
2022/04/14 02:17:11;;;;;;;2.60;2.25;;;10.40;58.50;;;;;;4945091;29;20130;-84
2022/04/14 02:19:36;;;;;;;3.33;2.75;;;10.40;58.50;;;;;;4908725;29;20127;-86
2022/04/14 02:22:03;;;;;;;3.08;2.78;;;10.40;58.60;;;;;;4932663;29;20035;-85
2022/04/14 02:24:28;;;;;;;3.53;2.95;;;10.30;58.40;;;;;;4933500;29;20134;-85
2022/04/14 02:26:55;;;;;;;3.05;2.63;;;10.30;58.50;;;;;;4927529;29;20554;-84
2022/04/14 02:29:21;;;;;;;3.08;2.78;;;10.30;58.50;;;;;;4929773;29;20040;-84
2022/04/14 02:31:47;;;;;;;3.00;2.70;;;10.30;58.60;;;;;;4926881;29;20046;-84
2022/04/14 02:34:13;;;;;;;4.15;3.25;;;10.30;58.60;;;;;;4914998;29;20194;-84
2022/04/14 02:36:39;;;;;;;3.30;3.00;;;10.20;58.40;;;;;;4924300;29;20028;-84
2022/04/14 02:39:05;;;;;;;3.20;2.90;;;10.20;58.40;;;;;;4927259;29;20044;-85
2022/04/14 02:41:31;;;;;;;3.33;3.03;;;10.20;58.50;;;;;;4926716;29;20411;-85
2022/04/14 02:43:57;;;;;;;3.47;2.95;;;10.20;58.50;;;;;;4939847;29;20032;-85
2022/04/14 02:46:22;;;;;;;3.85;3.33;;;10.20;58.50;;;;;;4931087;29;20195;-84
2022/04/14 02:48:48;;;;;;;4.03;3.22;;;10.10;58.40;;;;;;4930390;29;20158;-84
2022/04/14 02:51:14;;;;;;;4.20;3.15;;;10.10;58.40;;;;;;4911516;29;20036;-85
2022/04/14 02:53:40;;;;;;;4.05;3.17;;;10.10;58.50;;;;;;4938448;28;20031;-85
2022/04/14 02:56:06;;;;;;;4.20;3.38;;;10.10;58.50;;;;;;4930953;29;20402;-85
2022/04/14 02:58:33;;;;;;;3.97;3.58;;;10.10;58.50;;;;;;4930241;29;20047;-85
2022/04/14 03:00:59;;;;;;;3.95;3.10;;;10.00;58.40;;;;;;4931451;29;20032;-85
2022/04/14 03:03:26;;;;;;;3.97;3.58;;;10.00;58.40;;;;;;4930919;29;20040;-85
2022/04/14 03:05:52;;;;;;;5.80;3.72;;;10.00;58.40;;;;;;4930379;29;20075;-84
2022/04/14 03:08:18;;;;;;;4.97;3.90;;;9.90;58.30;;;;;;4930404;29;20039;-85
2022/04/14 03:10:44;;;;;;;5.05;4.00;;;9.90;58.30;;;;;;4930587;29;20508;-85
2022/04/14 03:13:10;;;;;;;5.30;3.75;;;9.90;58.30;;;;;;4929226;29;20039;-86
2022/04/14 03:15:36;;;;;;;4.03;3.10;;;9.90;58.40;;;;;;4930339;29;20031;-85
2022/04/14 03:18:02;;;;;;;5.90;3.67;;;9.90;58.40;;;;;;4929212;29;20036;-86
2022/04/14 03:20:28;;;;;;;4.68;4.15;;;9.90;58.50;;;;;;4930325;29;20086;-83
2022/04/14 03:22:55;;;;;;;4.03;3.38;;;9.80;58.30;;;;;;4938094;29;20036;-87
2022/04/14 03:25:21;;;;;;;5.00;3.67;;;9.80;58.30;;;;;;4930607;29;20039;-88
2022/04/14 03:27:47;;;;;;;3.88;2.70;;;9.80;58.30;;;;;;4927503;29;20158;-86
2022/04/14 03:30:13;;;;;;;4.20;3.72;;;9.80;58.30;;;;;;4932017;29;20035;-90
2022/04/14 03:32:44;;;;;;;3.38;2.75;;;9.80;58.30;;;;;;4929346;29;20067;-87
2022/04/14 03:35:12;;;;;;;3.58;3.28;;;9.80;58.30;;;;;;4921093;29;20045;-87
2022/04/14 03:37:38;;;;;;;3.65;2.95;;;9.80;58.30;;;;;;4931144;29;20123;-84
2022/04/14 03:40:06;;;;;;;3.30;3.00;;;9.80;58.30;;;;;;4924632;29;20086;-85
2022/04/14 03:42:33;;;;;;;3.45;2.67;;;9.80;58.30;;;;;;4926074;29;20107;-84
2022/04/14 03:45:00;;;;;;;3.25;2.90;;;9.80;58.30;;;;;;4929379;29;20127;-84
2022/04/14 03:47:26;;;;;;;4.78;3.15;;;9.80;58.30;;;;;;4926535;29;20121;-83
2022/04/14 03:49:52;;;;;;;3.20;2.65;;;9.80;58.30;;;;;;4934224;29;20055;-84
2022/04/14 03:52:18;;;;;;;3.05;2.65;;;9.80;58.30;;;;;;4934611;29;20122;-85
2022/04/14 03:54:44;;;;;;;3.60;3.03;;;9.80;58.30;;;;;;4929798;29;20028;-84
2022/04/14 03:57:11;;;;;;;4.57;2.88;;;9.90;58.50;;;;;;4945508;29;20055;-84
2022/04/14 03:59:37;;;;;;;3.22;2.85;;;9.90;58.50;;;;;;4929776;29;20131;-85
2022/04/14 04:02:04;;;;;;;4.10;3.35;;;9.90;58.50;;;;;;4930019;29;20039;-85
2022/04/14 04:04:31;;;;;;;3.45;3.15;;;9.90;58.50;;;;;;4939500;29;20130;-85
2022/04/14 04:06:59;;;;;;;4.13;3.22;;;9.90;58.40;;;;;;4953236;29;20016;-86
2022/04/14 04:09:26;;;;;;;6.88;3.55;;;10.00;58.60;;;;;;4968314;28;20043;-84
2022/04/14 04:11:53;;;;;;;5.93;4.05;;;10.00;58.60;;;;;;4934033;29;20027;-84
2022/04/14 04:14:20;;;;;;;5.30;3.42;;;10.00;58.60;;;;;;4954903;28;20024;-83
2022/04/14 04:16:47;;;;;;;5.97;4.72;;;10.00;59.20;;;;;;4953902;28;20059;-84
2022/04/14 04:19:13;;;;;;;6.00;4.13;;;10.00;58.60;;;;;;4957672;29;20095;-84
2022/04/14 04:21:39;;;;;;;6.15;4.13;;;10.00;58.60;;;;;;4972694;28;20031;-84
2022/04/14 04:24:05;;;;;;;5.97;4.40;;;10.00;59.20;;;;;;4957773;28;20036;-85
2022/04/14 04:26:31;;;;;;;5.88;4.25;;;10.00;58.60;;;;;;4938929;29;20020;-83
2022/04/14 04:28:56;;;;;;;8.23;4.85;;;10.10;58.80;;;;;;4931343;29;20072;-86
2022/04/14 04:31:23;;;;;;;6.68;5.57;;;10.10;58.80;;;;;;4937477;29;20035;-86
2022/04/14 04:33:51;;;;;;;6.53;5.00;;;10.10;58.80;;;;;;4925517;29;20032;-86
2022/04/14 04:36:20;;;;;;;6.55;4.97;;;10.10;58.80;;;;;;4930743;29;20153;-85
2022/04/14 04:38:46;;;;;;;6.60;5.22;;;10.10;58.80;;;;;;4937919;29;20221;-85
2022/04/14 04:41:12;;;;;;;7.50;5.38;;;10.20;59.00;;;;;;4938673;29;20059;-86
2022/04/14 04:43:38;;;;;;;6.25;5.38;;;10.20;58.90;;;;;;4963857;29;20083;-85
2022/04/14 04:46:04;;;;;;;9.18;5.30;;;10.20;59.00;;;;;;4945016;29;20032;-85
2022/04/14 04:48:30;;;;;;;8.02;5.78;;;10.20;59.00;;;;;;4934141;29;20518;-83
2022/04/14 04:50:56;;;;;;;8.75;5.65;;;10.20;59.00;;;;;;4936094;28;20047;-84
2022/04/14 04:53:22;;;;;;;7.63;5.78;;;10.20;59.00;;;;;;4929574;29;20511;-84
2022/04/14 04:55:47;;;;;;;6.63;5.25;;;10.20;59.00;;;;;;4933496;29;20058;-85
2022/04/14 04:58:14;;;;;;;6.97;5.28;;;10.20;59.00;;;;;;4936217;29;20392;-87
2022/04/14 05:00:41;;;;;;;6.70;5.15;;;10.30;59.20;;;;;;4936112;29;20028;-84
2022/04/14 05:03:09;;;;;;;6.45;5.57;;;10.30;59.20;;;;;;4935878;29;20036;-86
2022/04/14 05:05:35;;;;;;;6.60;5.68;;;10.30;59.20;;;;;;4931639;29;20436;-88
2022/04/14 05:08:02;;;;;;;6.85;5.18;;;10.30;59.20;;;;;;4929320;29;20555;-89
2022/04/14 05:10:28;;;;;;;7.07;5.35;;;10.30;59.30;;;;;;4921132;29;20062;-86
2022/04/14 05:12:54;;;;;;;5.32;4.07;;;10.30;59.30;;;;;;4930009;29;20039;-92
2022/04/14 05:15:21;;;;;;;7.00;4.90;;;10.30;59.30;;;;;;4930296;29;20056;-90
2022/04/14 05:17:47;;;;;;;7.47;5.22;;;10.40;59.50;;;;;;4925002;29;20144;-92
2022/04/14 05:20:13;;;;;;;6.00;5.10;;;10.40;59.50;;;;;;4930016;28;20043;-90
2022/04/14 05:22:39;;;;;;;6.75;5.10;;;10.40;59.50;;;;;;4931334;29;20027;-86
2022/04/14 05:25:05;;;;;;;8.00;5.05;;;10.40;59.50;;;;;;4933206;29;20031;-92
2022/04/14 05:27:31;;;;;;;6.55;5.22;;;10.50;59.70;;;;;;4928369;29;20035;-89
2022/04/14 05:29:57;;;;;;;7.72;5.22;;;10.50;59.70;;;;;;4928022;29;20027;-92
2022/04/14 05:32:23;;;;;;;6.32;5.05;;;10.50;59.70;;;;;;4929263;29;20027;-88
2022/04/14 05:34:48;;;;;;;5.82;4.50;;;10.60;59.90;;;;;;4910220;29;20541;-83
2022/04/14 05:37:14;;;;;;;5.88;4.72;;;10.60;59.90;;;;;;4930457;29;20174;-83
2022/04/14 05:39:40;;;;;;;6.03;4.93;;;10.60;59.90;;;;;;4931121;29;20146;-82
2022/04/14 05:42:06;;;;;;;5.28;4.47;;;10.60;59.90;;;;;;4931161;29;20311;-81
2022/04/14 05:44:32;;;;;;;5.70;4.68;;;10.60;59.90;;;;;;4910333;29;20458;-80
2022/04/14 05:46:58;;;;;;;4.75;4.25;;;10.70;60.10;;;;;;4932244;29;20032;-80
2022/04/14 05:49:24;;;;;;;5.60;4.80;;;10.70;60.00;;;;;;4924761;29;20518;-83
2022/04/14 05:51:49;;;;;;;6.25;4.50;;;10.70;60.00;;;;;;4929536;29;20063;-87
2022/04/14 05:54:15;;;;;;;8.70;4.25;;;10.80;60.40;;;;;;4926414;29;20468;-85
2022/04/14 05:56:41;;;;;;;4.60;3.65;;;10.80;61.00;;;;;;4929218;29;20059;-79
2022/04/14 05:59:15;;;;;;;5.55;3.60;;;11.00;61.70;;;;;;4928662;29;20070;-83
2022/04/14 06:01:46;;;;;;;5.45;4.82;;;11.10;61.90;;;;;;4928767;29;20083;-78
2022/04/14 06:04:12;;;;;;;4.80;4.30;;;11.20;62.00;;;;;;4928051;29;20040;-80
2022/04/14 06:06:39;;;;;;;5.85;4.22;;;11.20;61.90;;;;;;4928374;29;20036;-82
2022/04/14 06:09:05;;;;;;;4.75;4.22;;;11.20;61.90;;;;;;4922068;29;20448;-80
2022/04/14 06:11:31;;;;;;;6.00;4.78;;;11.30;62.00;;;;;;4927644;29;20074;-78
2022/04/14 06:13:57;;;;;;;4.88;4.38;;;11.30;62.00;;;;;;4928696;29;20151;-80
2022/04/14 06:16:23;;;;;;;4.93;4.43;;;11.30;62.00;;;;;;4922808;29;20028;-81
2022/04/14 06:18:49;;;;;;;6.57;5.25;;;11.30;62.00;;;;;;4927111;29;20043;-80
2022/04/14 06:21:15;;;;;;;4.78;4.30;;;11.30;61.90;;;;;;4925078;29;20027;-79
2022/04/14 06:23:42;;;;;;;5.13;4.35;;;11.30;61.90;;;;;;4927701;29;20106;-79
2022/04/14 06:26:08;;;;;;;5.20;4.55;;;11.40;62.20;;;;;;4922352;29;20070;-80
2022/04/14 06:28:34;;;;;;;4.88;4.10;;;11.40;62.00;;;;;;4926645;29;20558;-80
2022/04/14 06:31:01;;;;;;;5.28;4.63;;;11.40;62.00;;;;;;4928579;29;20116;-81
2022/04/14 06:33:30;;;;;;;6.05;4.60;;;11.40;61.90;;;;;;4928205;29;20067;-80
2022/04/14 06:35:59;;;;;;;7.15;5.13;;;11.40;61.90;;;;;;4930248;29;20031;-79
2022/04/14 06:38:27;;;;;;;5.00;4.40;;;11.40;61.90;;;;;;4928942;29;20330;-88
2022/04/14 06:40:54;;;;;;;5.68;4.90;;;11.40;61.90;;;;;;4935399;29;20043;-93
2022/04/14 06:43:21;;;;;;;6.10;4.72;;;11.50;62.10;;;;;;4943025;29;20055;-91
2022/04/14 06:45:47;;;;;;;5.25;4.60;;;11.50;62.10;;;;;;4938123;28;20027;-95
2022/04/14 06:48:14;;;;;;;6.72;5.35;;;11.50;62.10;;;;;;4931903;29;20036;-88
2022/04/14 06:50:40;;;;;;;7.72;5.18;;;11.50;62.00;;;;;;4921516;29;20857;-91
2022/04/14 06:53:06;;;;;;;5.68;5.07;;;11.50;62.00;;;;;;4929535;29;20036;-92
2022/04/14 06:55:32;;;;;;;6.53;5.05;;;11.60;62.20;;;;;;4922190;29;20051;-94
2022/04/14 06:57:58;;;;;;;6.70;6.07;;;11.60;62.20;;;;;;4935603;29;20381;-95
2022/04/14 07:00:25;;;;;;;9.02;5.25;;;11.60;62.70;;;;;;4935390;29;20040;-88
2022/04/14 07:02:52;;;;;;;6.82;5.50;;;11.70;62.30;;;;;;4925297;29;20047;-90
2022/04/14 07:05:19;;;;;;;6.88;5.38;;;11.70;62.30;;;;;;4924335;29;20532;-96
2022/04/14 07:07:46;;;;;;;7.43;5.25;;;11.70;62.20;;;;;;4931014;29;20027;-95
2022/04/14 07:10:13;;;;;;;5.38;4.57;;;11.80;62.30;;;;;;4926616;29;20111;-90
2022/04/14 07:12:39;;;;;;;6.68;4.93;;;11.80;62.30;;;;;;4938052;29;20122;-83
2022/04/14 07:15:06;;;;;;;6.97;5.65;;;11.90;62.30;;;;;;4923315;29;20080;-85
2022/04/14 07:17:34;;;;;;;8.43;5.28;;;11.90;62.30;;;;;;4922907;29;20244;-83
2022/04/14 07:20:03;;;;;;;6.10;5.28;;;12.00;62.40;;;;;;4923805;29;20102;-89
2022/04/14 07:22:29;;;;;;;6.53;5.20;;;12.10;62.50;;;;;;4911710;29;20094;-94
2022/04/14 07:24:55;;;;;;;8.25;5.00;;;12.10;62.40;;;;;;4915717;29;20039;-91
2022/04/14 07:27:21;;;;;;;10.05;6.00;;;12.20;62.50;;;;;;4922111;29;20032;-88
2022/04/14 07:29:47;;;;;;;9.73;6.28;;;12.30;62.60;;;;;;4924203;29;20102;-90
2022/04/14 07:32:14;;;;;;;7.55;5.63;;;12.30;62.50;;;;;;4926959;29;20487;-88
2022/04/14 07:34:40;;;;;;;8.00;6.40;;;12.40;62.60;;;;;;4947643;28;20115;-92
2022/04/14 07:37:06;;;;;;;8.23;6.40;;;12.50;62.70;;;;;;4924804;29;20024;-87
2022/04/14 07:39:32;;;;;;;9.23;6.18;;;12.60;62.80;;;;;;4927942;29;20080;-82
2022/04/14 07:41:58;;;;;;;8.90;6.32;;;12.60;62.70;;;;;;4939584;29;20035;-85
2022/04/14 07:44:25;;;;;;;9.13;6.90;;;12.70;62.80;;;;;;4925158;29;20055;-85
2022/04/14 07:46:50;;;;;;;8.90;6.60;;;12.80;62.90;;;;;;4923008;29;20059;-83
2022/04/14 07:49:16;;;;;;;8.13;6.50;;;12.80;62.80;;;;;;4923899;29;20522;-85
2022/04/14 07:51:42;;;;;;;7.85;5.72;;;12.90;62.90;;;;;;4926255;29;20270;-84
2022/04/14 07:54:10;;;;;;;15.63;7.65;;;13.00;63.50;;;;;;4938164;29;20049;-85
2022/04/14 07:56:36;;;;;;;7.75;5.88;;;13.10;63.10;;;;;;4938191;29;20039;-85
2022/04/14 07:59:02;;;;;;;8.57;6.32;;;13.10;63.00;;;;;;4924090;29;20048;-83
2022/04/14 08:01:29;;;;;;;9.27;6.32;;;13.10;62.80;;;;;;4932808;29;20032;-84
2022/04/14 08:03:55;;;;;;;8.82;5.97;;;13.30;63.10;;;;;;4945630;29;20099;-83
2022/04/14 08:06:25;;;;;;;8.85;6.15;;;13.30;63.00;;;;;;4946203;29;20043;-85
2022/04/14 08:08:51;;;;;;;7.50;6.15;;;13.40;63.60;;;;;;4942172;29;20043;-85
2022/04/14 08:11:17;;;;;;;12.35;7.35;;;13.50;63.00;;;;;;4936196;29;20054;-85
2022/04/14 08:13:43;;;;;;;7.82;6.25;;;13.60;63.10;;;;;;4929815;29;20039;-84
2022/04/14 08:16:09;;;;;;;9.10;6.45;;;13.60;63.00;;;;;;4928745;29;20036;-88
2022/04/14 08:18:37;;;;;;;9.02;5.70;;;13.80;63.20;;;;;;4910484;29;20050;-87
2022/04/14 08:21:03;;;;;;;8.13;5.95;;;13.90;63.30;;;;;;4942794;29;20413;-88
2022/04/14 08:23:30;;;;;;;12.60;6.82;;;14.00;63.30;;;;;;4932266;28;20066;-87
2022/04/14 08:25:56;;;;;;;9.07;6.45;;;14.00;63.10;;;;;;4942135;29;20419;-88
2022/04/14 08:28:23;;;;;;;12.10;6.88;;;14.20;63.30;;;;;;4927329;29;20682;-87
2022/04/14 08:30:49;;;;;;;8.07;5.55;;;14.20;63.10;;;;;;4944548;29;20144;-87
2022/04/14 08:33:20;;;;;;;8.75;5.13;;;14.30;63.20;;;;;;4930643;29;20035;-86
2022/04/14 08:35:46;;;;;;;10.20;5.60;;;14.40;63.20;;;;;;4929234;29;20582;-87
2022/04/14 08:38:12;;;;;;;9.27;6.07;;;14.50;63.20;;;;;;4930458;29;20156;-86
2022/04/14 08:40:41;;;;;;;6.82;5.88;;;14.60;63.30;;;;;;4930058;29;20062;-86
2022/04/14 08:43:08;;;;;;;6.63;5.78;;;14.70;63.30;;;;;;4924919;29;20284;-86
2022/04/14 08:45:45;;;;;;;7.55;5.57;;;14.80;63.40;;;;;;4929323;29;20027;-86
2022/04/14 08:48:15;;;;;;;7.30;5.28;;;14.90;63.40;;;;;;4926448;29;20059;-87
2022/04/14 08:50:44;;;;;;;8.65;5.82;;;15.00;63.90;;;;;;4943248;29;20071;-83
2022/04/14 08:53:11;;;;;;;6.95;6.00;;;15.10;63.30;;;;;;4931356;29;20031;-86
2022/04/14 08:55:40;;;;;;;8.57;6.00;;;15.20;63.30;;;;;;4928966;29;20071;-84
2022/04/14 08:58:13;;;;;;;5.57;4.15;;;15.40;63.60;;;;;;4927106;29;20039;-84
2022/04/14 09:00:39;;;;;;;4.72;3.97;;;15.50;63.80;;;;;;4926397;29;20035;-82
2022/04/14 09:03:05;;;;;;;9.27;5.47;;;15.60;63.80;;;;;;4927692;29;20035;-89
2022/04/14 09:05:31;;;;;;;6.22;4.22;;;15.80;64.10;;;;;;4928146;29;20499;-84
2022/04/14 09:07:57;;;;;;;9.60;4.82;;;15.90;64.00;;;;;;4927671;29;20036;-85
2022/04/14 09:10:23;;;;;;;6.13;4.60;;;16.10;64.00;;;;;;4911466;29;20407;-84
2022/04/14 09:12:52;;;;;;;5.45;4.68;;;16.20;63.90;;;;;;4928211;29;20099;-86
2022/04/14 09:15:20;;;;;;;6.18;4.30;;;16.40;64.00;;;;;;4925361;29;20414;-86
2022/04/14 09:17:46;;;;;;;8.55;5.68;;;16.50;63.80;;;;;;4920921;29;20035;-85
2022/04/14 09:20:36;;;;;;;6.38;4.40;;;16.70;63.90;;;;;;4930871;29;20031;-85
2022/04/14 09:23:21;;;;;;;8.40;5.15;;;16.80;63.80;;;;;;4930162;29;20317;-85
2022/04/14 09:25:49;;;;;;;7.13;4.63;;;17.00;63.70;;;;;;4933892;29;20039;-85
2022/04/14 09:28:18;;;;;;;6.13;4.43;;;17.20;63.80;;;;;;4926798;29;20149;-85
2022/04/14 09:31:03;;;;;;;6.15;4.20;;;17.30;63.60;;;;;;4927549;29;20035;-85
2022/04/14 09:33:31;;;;;;;10.68;4.75;;;17.40;63.50;;;;;;4923434;29;20039;-86
2022/04/14 09:36:23;;;;;;;6.13;5.22;;;17.50;63.30;;;;;;4913157;29;20404;-86
2022/04/14 09:38:58;;;;;;;6.38;4.35;;;17.70;63.40;;;;;;4910163;29;20074;-86
2022/04/14 09:41:42;;;;;;;6.80;4.68;;;17.70;63.30;;;;;;4928476;29;20131;-86
2022/04/14 09:44:10;;;;;;;4.70;4.00;;;17.90;63.30;;;;;;4911702;29;20039;-84
2022/04/14 09:46:38;;;;;;;6.53;4.50;;;18.00;63.30;;;;;;4924469;29;20047;-85
2022/04/14 09:49:09;;;;;;;5.40;4.18;;;18.00;63.20;;;;;;4932748;29;20562;-85
2022/04/14 09:51:41;;;;;;;6.88;4.57;;;18.10;63.10;;;;;;4940587;29;20500;-86
2022/04/14 09:54:27;;;;;;;5.38;4.45;;;18.30;63.20;;;;;;4918127;29;20040;-88
2022/04/14 09:56:57;;;;;;;6.75;4.05;;;18.40;63.00;;;;;;4920781;29;20500;-87
2022/04/14 09:59:22;;;;;;;7.60;4.20;;;18.60;63.00;;;;;;4928851;29;20081;-84
2022/04/14 10:02:06;;;;;;;7.90;3.78;;;18.80;62.90;;;;;;4927520;29;20035;-86
2022/04/14 10:04:35;;;;;;;4.97;3.40;;;19.00;62.80;;;;;;4925981;29;20032;-87
2022/04/14 10:07:08;;;;;;;9.02;3.78;;;19.20;62.80;;;;;;4922251;29;20042;-87
2022/04/14 10:09:38;;;;;;;5.53;4.07;;;19.40;62.50;;;;;;4922498;29;20407;-85
2022/04/14 10:12:17;;;;;;;8.15;4.13;;;19.60;62.40;;;;;;4927568;29;20074;-84
2022/04/14 10:14:56;;;;;;;4.50;3.30;;;19.90;62.40;;;;;;4926316;29;20040;-83
2022/04/14 10:17:26;;;;;;;5.65;4.13;;;20.10;62.50;;;;;;4929543;29;20123;-86
2022/04/14 10:19:52;;;;;;;4.75;4.05;;;20.30;62.10;;;;;;4924216;29;20111;-87
2022/04/14 10:22:19;;;;;;;6.93;3.80;;;20.50;62.50;;;;;;4932286;29;20036;-86
2022/04/14 10:24:46;;;;;;;7.13;4.32;;;20.70;61.90;;;;;;4932851;28;20252;-86
2022/04/14 10:27:14;;;;;;;6.65;4.18;;;20.90;61.80;;;;;;4927956;29;20577;-86
2022/04/14 10:29:44;;;;;;;8.55;4.00;;;21.10;61.70;;;;;;4935169;29;20031;-87
2022/04/14 10:32:11;;;;;;;5.32;3.95;;;21.30;61.60;;;;;;4925109;29;20111;-87
2022/04/14 10:34:38;;;;;;;6.78;4.40;;;21.50;61.50;;;;;;4928209;29;20072;-87
2022/04/14 10:37:08;;;;;;;6.88;3.83;;;21.70;61.40;;;;;;4931408;29;20027;-84
2022/04/14 10:39:41;;;;;;;7.50;4.18;;;21.90;61.30;;;;;;4928136;29;20061;-83
2022/04/14 10:42:08;;;;;;;5.38;3.55;;;22.10;61.20;;;;;;4927556;29;20080;-86
2022/04/14 10:44:49;;;;;;;5.40;3.45;;;22.30;61.20;;;;;;4930535;29;20040;-86
2022/04/14 10:47:37;;;;;;;6.72;3.67;;;22.50;60.90;;;;;;4929154;29;20037;-85
2022/04/14 10:50:03;;;;;;;5.18;3.47;;;22.70;60.80;;;;;;4933721;29;20024;-85
2022/04/14 10:52:29;;;;;;;4.60;3.25;;;22.90;60.80;;;;;;4928465;29;20044;-84
2022/04/14 10:54:57;;;;;;;5.35;3.70;;;23.10;60.70;;;;;;4929141;29;20036;-85
2022/04/14 10:57:37;;;;;;;5.85;3.58;;;23.20;60.30;;;;;;4928592;29;20047;-86
2022/04/14 11:00:32;;;;;;;3.60;2.95;;;23.40;60.20;;;;;;4927851;29;20044;-85
2022/04/14 11:03:15;;;;;;;5.13;3.10;;;23.50;60.00;;;;;;4929027;29;20331;-87
2022/04/14 11:05:44;;;;;;;5.20;3.55;;;23.70;60.00;;;;;;4925567;29;20035;-89
2022/04/14 11:08:21;;;;;;;4.85;3.13;;;23.80;60.00;;;;;;4916982;29;20036;-85
2022/04/14 11:11:12;;;;;;;7.07;2.85;;;24.00;59.70;;;;;;4924645;29;20327;-85
2022/04/14 11:13:53;;;;;;;4.25;2.78;;;24.20;59.50;;;;;;4927404;29;20027;-85
2022/04/14 11:16:42;;;;;;;4.25;2.70;;;24.30;59.20;;;;;;4926968;29;20031;-84
2022/04/14 11:19:21;;;;;;;5.78;2.75;;;24.50;59.10;;;;;;4924467;29;20047;-85
2022/04/14 11:22:02;;;;;;;4.30;2.63;;;24.50;58.80;;;;;;4931655;29;20028;-83
2022/04/14 11:24:37;;;;;;;4.05;2.05;;;24.60;58.70;;;;;;4945566;29;20046;-83
2022/04/14 11:27:16;;;;;;;2.97;2.03;;;24.50;58.30;;;;;;4942589;29;20023;-87
2022/04/14 11:29:47;;;;;;;4.60;2.00;;;24.50;58.20;;;;;;4950463;28;20107;-85
2022/04/14 11:32:15;;;;;;;4.35;2.50;;;24.40;58.10;;;;;;4949575;29;20119;-87
2022/04/14 11:34:42;;;;;;;6.22;2.42;;;24.20;57.80;;;;;;4942549;29;20047;-86
2022/04/14 11:37:40;;;;;;;4.63;2.33;;;24.10;57.70;;;;;;4948107;29;20024;-89
2022/04/14 11:40:17;;;;;;;3.83;2.13;;;23.90;57.20;;;;;;4950693;29;20050;-86
2022/04/14 11:42:51;;;;;;;2.60;1.83;;;23.80;57.40;;;;;;4945403;29;20039;-85
2022/04/14 11:45:25;;;;;;;1.63;1.33;;;23.60;57.20;;;;;;4942584;29;20034;-90
2022/04/14 11:47:54;;;;;;;4.35;1.98;;;23.50;57.20;;;;;;4964199;29;20024;-88
2022/04/14 11:50:32;;;;;;;4.32;2.70;;;23.30;57.10;;;;;;4925203;29;20032;-90
2022/04/14 11:53:03;;;;;;;6.75;2.20;;;23.20;56.80;;;;;;4927924;29;20476;-90
2022/04/14 11:55:42;;;;;;;4.15;2.10;;;23.10;57.10;;;;;;4928095;29;20223;-88
2022/04/14 11:58:10;;;;;;;4.40;2.33;;;22.90;56.70;;;;;;4939006;28;20039;-84
2022/04/14 12:00:50;;;;;;;4.63;2.45;;;22.80;56.90;;;;;;4926709;29;20070;-89
2022/04/14 12:03:29;;;;;;;5.25;2.97;;;22.70;56.70;;;;;;4916379;29;20045;-87
2022/04/14 12:06:00;;;;;;;3.70;2.42;;;22.60;56.70;;;;;;4930537;29;20095;-96
2022/04/14 12:08:26;;;;;;;4.53;2.28;;;22.50;56.80;;;;;;4924321;29;20621;-96
2022/04/14 12:10:52;;;;;;;5.55;2.25;;;22.50;56.80;;;;;;4920182;29;20040;-96
2022/04/14 12:13:19;;;;;;;2.33;2.13;;;22.50;56.80;;;;;;4929036;29;20066;-88
2022/04/14 12:16:07;;;;;;;4.57;2.10;;;22.50;56.80;;;;;;4941997;29;20047;-86
2022/04/14 12:18:34;;;;;;;2.67;1.70;;;22.50;56.60;;;;;;4925535;29;20040;-90
2022/04/14 12:21:00;;;;;;;5.22;1.35;;;22.60;56.70;;;;;;4928203;29;20105;-84
2022/04/14 12:23:26;;;;;;;5.25;2.28;;;22.70;56.70;;;;;;4934381;29;20789;-86
2022/04/14 12:25:54;;;;;;;7.70;2.72;;;22.80;56.60;;;;;;4935605;29;20024;-86
2022/04/14 12:28:20;;;;;;;4.57;2.15;;;22.80;56.40;;;;;;4935912;29;20040;-93
2022/04/14 12:30:46;;;;;;;3.10;1.90;;;22.90;56.40;;;;;;4937515;29;20043;-94
2022/04/14 12:33:12;;;;;;;5.22;2.15;;;23.00;56.30;;;;;;4938807;29;20125;-92
2022/04/14 12:35:40;;;;;;;2.97;1.65;;;23.10;56.30;;;;;;4919215;29;20059;-92
2022/04/14 12:38:21;;;;;;;3.70;1.38;;;23.20;56.10;;;;;;4919645;29;20059;-90
2022/04/14 12:40:54;;;;;;;3.05;1.50;;;23.30;55.90;;;;;;4932337;29;20064;-88
2022/04/14 12:43:41;;;;;;;4.85;1.70;;;23.50;56.00;;;;;;4928039;29;20043;-89
2022/04/14 12:46:24;;;;;;;3.08;1.40;;;23.80;55.90;;;;;;4930033;29;20024;-91
2022/04/14 12:49:09;;;;;;;4.32;1.35;;;24.10;55.90;;;;;;4919575;29;20395;-85
2022/04/14 12:51:42;;;;;;;1.65;0.90;;;24.50;56.10;;;;;;4926212;29;20043;-85
2022/04/14 12:54:14;;;;;;;1.65;0.98;;;24.70;55.80;;;;;;4920357;29;20051;-83